Time;durP1;ratioP1;P1;durP2;ratioP2;P2;SDS_P1;SDS_P2;PMS_P1;PMS_P2;Temp;Humidity;BMP_temperature;BMP_pressure;BME280_temperature;BME280_humidity;BME280_pressure;Samples;Min_cycle;Max_cycle;Signal;HPM_P1;HPM_P2
2023/09/18 00:01:19;;;;;;;;;;;;;;;24.67;43.61;99322.59;5107471;28;19970;-70
2023/09/18 00:03:45;;;;;;;;;;;;;;;24.68;43.54;99318.09;5074444;28;19974;-70
2023/09/18 00:06:11;;;;;;;;;;;;;;;24.68;43.54;99316.22;5072938;28;19920;-70
2023/09/18 00:08:36;;;;;;;;;;;;;;;24.69;43.54;99314.41;5072816;28;20299;-70
2023/09/18 00:11:01;;;;;;;;;;;;;;;24.67;43.45;99311.09;5106003;28;19920;-70
2023/09/18 00:13:27;;;;;;;;;;;;;;;24.65;43.45;99311.28;5072767;28;19923;-70
2023/09/18 00:15:54;;;;;;;;;;;;;;;24.66;43.51;99309.44;5074178;28;19938;-70
2023/09/18 00:18:19;;;;;;;;;;;;;;;24.65;43.46;99305.13;5107024;28;19923;-70
2023/09/18 00:20:49;;;;;;;;;;;;;;;24.64;43.33;99306.97;5072459;28;19916;-70
2023/09/18 00:23:15;;;;;;;;;;;;;;;24.65;43.29;99313.13;5106041;28;19916;-70
2023/09/18 00:25:42;;;;;;;;;;;;;;;24.63;43.55;99305.31;5089386;28;19923;-70
2023/09/18 00:28:07;;;;;;;;;;;;;;;24.61;43.50;99306.56;5072821;28;19916;-70
2023/09/18 00:30:33;;;;;;;;;;;;;;;24.61;43.29;99301.22;5106405;28;20406;-70
2023/09/18 00:32:58;;;;;;;;;;;;;;;24.58;43.65;99305.09;5089322;28;20022;-70
2023/09/18 00:35:23;;;;;;;;;;;;;;;24.55;43.71;99305.44;5088965;28;20012;-71
2023/09/18 00:37:49;;;;;;;;;;;;;;;24.52;43.80;99306.63;5072147;28;19917;-70
2023/09/18 00:40:14;;;;;;;;;;;;;;;24.50;43.70;99305.19;5072469;28;19944;-70
2023/09/18 00:42:39;;;;;;;;;;;;;;;24.49;43.76;99303.53;5072605;28;20398;-69
2023/09/18 00:45:05;;;;;;;;;;;;;;;24.47;43.86;99301.06;5073569;28;19927;-69
2023/09/18 00:47:30;;;;;;;;;;;;;;;24.45;43.84;99302.25;5073506;28;19916;-71
2023/09/18 00:49:55;;;;;;;;;;;;;;;24.43;43.83;99301.66;5072086;28;19916;-72
2023/09/18 00:52:21;;;;;;;;;;;;;;;24.38;43.97;99303.06;5072842;28;19989;-72
2023/09/18 00:54:46;;;;;;;;;;;;;;;24.36;43.90;99297.06;5072165;28;19917;-72
2023/09/18 00:57:11;;;;;;;;;;;;;;;24.34;43.97;99292.97;5073126;28;20376;-71
2023/09/18 00:59:37;;;;;;;;;;;;;;;24.31;44.14;99302.16;5073066;28;19979;-72
2023/09/18 01:02:03;;;;;;;;;;;;;;;24.30;43.98;99299.69;5071943;28;19917;-72
2023/09/18 01:04:29;;;;;;;;;;;;;;;24.29;44.05;99298.88;5055345;28;19939;-72
2023/09/18 01:06:56;;;;;;;;;;;;;;;24.27;44.16;99292.06;5055375;28;19916;-72
2023/09/18 01:09:21;;;;;;;;;;;;;;;24.25;43.98;99294.13;5071906;28;19920;-72
2023/09/18 01:12:05;;;;;;;;;;;;;;;24.23;44.31;99296.13;5071988;28;19927;-71
2023/09/18 01:14:38;;;;;;;;;;;;;;;24.23;44.31;99293.47;5073102;28;20409;-72
2023/09/18 01:17:04;;;;;;;;;;;;;;;24.22;44.17;99286.50;5055216;28;19916;-72
2023/09/18 01:19:44;;;;;;;;;;;;;;;24.22;44.29;99287.31;5071611;28;20384;-72
2023/09/18 01:22:09;;;;;;;;;;;;;;;24.22;44.19;99289.97;5071767;28;20108;-71
2023/09/18 01:24:35;;;;;;;;;;;;;;;24.22;44.27;99287.31;5054853;28;19917;-72
2023/09/18 01:27:01;;;;;;;;;;;;;;;24.22;44.37;99292.66;5072205;28;20363;-72
2023/09/18 01:29:26;;;;;;;;;;;;;;;24.22;44.20;99281.16;5071668;28;19917;-71
2023/09/18 01:31:52;;;;;;;;;;;;;;;24.22;44.23;99283.84;5072710;28;19921;-71
2023/09/18 01:34:18;;;;;;;;;;;;;;;24.21;44.20;99280.34;5072827;28;19963;-72
2023/09/18 01:36:44;;;;;;;;;;;;;;;24.20;44.24;99284.03;5071648;28;19916;-71
2023/09/18 01:39:10;;;;;;;;;;;;;;;24.20;44.17;99278.69;5071685;28;19943;-72
2023/09/18 01:41:35;;;;;;;;;;;;;;;24.18;44.25;99278.88;5055160;28;19916;-71
2023/09/18 01:44:00;;;;;;;;;;;;;;;24.16;44.29;99280.94;5073065;28;20532;-71
2023/09/18 01:46:26;;;;;;;;;;;;;;;24.14;44.30;99277.59;5071268;28;19916;-72
2023/09/18 01:48:52;;;;;;;;;;;;;;;24.13;44.32;99285.78;5054866;28;19917;-71
2023/09/18 01:51:17;;;;;;;;;;;;;;;24.09;44.39;99281.88;5071467;28;20016;-71
2023/09/18 01:53:43;;;;;;;;;;;;;;;24.08;44.41;99285.56;5070882;28;19916;-72
2023/09/18 01:56:08;;;;;;;;;;;;;;;24.03;44.56;99289.59;5072475;28;19916;-72
2023/09/18 01:58:33;;;;;;;;;;;;;;;23.99;44.52;99291.03;5072542;28;19923;-71
2023/09/18 02:01:02;;;;;;;;;;;;;;;23.96;44.61;99290.59;5071191;28;19917;-72
2023/09/18 02:03:28;;;;;;;;;;;;;;;23.92;44.74;99291.97;5073047;28;19921;-72
2023/09/18 02:05:53;;;;;;;;;;;;;;;23.88;44.78;99291.53;5071499;28;19923;-71
2023/09/18 02:08:18;;;;;;;;;;;;;;;23.86;44.93;99288.22;5072854;28;20005;-72
2023/09/18 02:10:43;;;;;;;;;;;;;;;23.83;44.82;99292.09;5071280;28;19921;-71
2023/09/18 02:13:10;;;;;;;;;;;;;;;23.79;44.80;99287.31;5071344;28;19921;-71
2023/09/18 02:15:37;;;;;;;;;;;;;;;23.74;45.02;99285.19;5072276;28;19920;-72
2023/09/18 02:18:02;;;;;;;;;;;;;;;23.72;45.05;99289.06;5071439;28;19917;-71
2023/09/18 02:20:27;;;;;;;;;;;;;;;23.69;45.10;99292.09;5071471;28;20361;-71
2023/09/18 02:22:53;;;;;;;;;;;;;;;23.66;45.16;99296.81;5071088;28;19917;-71
2023/09/18 02:25:18;;;;;;;;;;;;;;;23.63;45.22;99283.03;5072262;28;19917;-71
2023/09/18 02:27:43;;;;;;;;;;;;;;;23.60;45.22;99283.41;5054295;28;19923;-71
2023/09/18 02:30:09;;;;;;;;;;;;;;;23.58;45.23;99282.78;5054185;28;19917;-72
2023/09/18 02:32:36;;;;;;;;;;;;;;;23.55;45.32;99293.81;5072330;28;19923;-72
2023/09/18 02:35:01;;;;;;;;;;;;;;;23.51;45.20;99289.88;5074459;28;19923;-71
2023/09/18 02:37:28;;;;;;;;;;;;;;;23.47;45.57;99286.75;5058173;28;19916;-72
2023/09/18 02:39:54;;;;;;;;;;;;;;;23.45;45.33;99288.75;5074786;28;20129;-72
2023/09/18 02:42:19;;;;;;;;;;;;;;;23.42;45.57;99291.78;5074582;28;19982;-72
2023/09/18 02:44:44;;;;;;;;;;;;;;;23.40;45.42;99288.50;5075973;28;20016;-72
2023/09/18 02:47:10;;;;;;;;;;;;;;;23.37;45.50;99295.03;5074633;28;19923;-72
2023/09/18 02:49:35;;;;;;;;;;;;;;;23.37;45.62;99292.38;5075899;28;19962;-72
2023/09/18 02:52:00;;;;;;;;;;;;;;;23.38;45.61;99286.03;5075596;28;20393;-71
2023/09/18 02:54:26;;;;;;;;;;;;;;;23.37;45.62;99286.22;5075842;28;19916;-72
2023/09/18 02:56:52;;;;;;;;;;;;;;;23.38;45.61;99285.22;5074441;28;19924;-72
2023/09/18 02:59:17;;;;;;;;;;;;;;;23.38;45.45;99293.19;5074397;28;19982;-71
2023/09/18 03:01:42;;;;;;;;;;;;;;;23.36;45.60;99280.06;5074134;28;19917;-72
2023/09/18 03:04:07;;;;;;;;;;;;;;;23.35;45.51;99282.91;5058087;28;19967;-71
2023/09/18 03:06:33;;;;;;;;;;;;;;;23.36;45.40;99285.41;5057608;28;20383;-70
2023/09/18 03:08:58;;;;;;;;;;;;;;;23.34;45.64;99292.75;5074635;28;19927;-71
2023/09/18 03:11:27;;;;;;;;;;;;;;;23.35;45.37;99293.56;5057387;28;19920;-70
2023/09/18 03:13:52;;;;;;;;;;;;;;;23.34;45.62;99294.56;5074067;28;19954;-70
2023/09/18 03:16:17;;;;;;;;;;;;;;;23.29;45.53;99293.31;5074283;28;19917;-70
2023/09/18 03:18:42;;;;;;;;;;;;;;;23.28;45.65;99293.50;5073593;28;19916;-70
2023/09/18 03:21:08;;;;;;;;;;;;;;;23.25;45.45;99291.19;5074655;28;20382;-71
2023/09/18 03:23:33;;;;;;;;;;;;;;;23.22;45.74;99292.38;5057096;28;19916;-71
2023/09/18 03:25:59;;;;;;;;;;;;;;;23.20;45.61;99294.41;5073903;28;19976;-70
2023/09/18 03:28:25;;;;;;;;;;;;;;;23.16;45.85;99297.63;5073727;28;19940;-70
2023/09/18 03:30:50;;;;;;;;;;;;;;;23.12;45.72;99294.53;5074028;28;20383;-71
2023/09/18 03:33:15;;;;;;;;;;;;;;;23.08;45.71;99298.56;5072479;28;19942;-71
2023/09/18 03:35:47;;;;;;;;;;;;;;;23.06;45.96;99295.22;5107910;28;19917;-73
2023/09/18 03:38:13;;;;;;;;;;;;;;;23.03;46.19;99293.75;5074644;28;19925;-69
2023/09/18 03:40:38;;;;;;;;;;;;;;;23.08;47.63;99298.56;5075390;28;19973;-70
2023/09/18 03:43:03;;;;;;;;;;;;;;;23.21;48.18;99296.06;5073638;28;19956;-71
2023/09/18 03:45:28;;;;;;;;;;;;;;;23.35;47.73;99299.72;5072701;28;19970;-68
2023/09/18 03:47:54;;;;;;;;;;;;;;;23.47;47.22;99302.75;5074833;28;19917;-70
2023/09/18 03:50:19;;;;;;;;;;;;;;;23.54;46.92;99295.63;5056701;28;19921;-70
2023/09/18 03:52:44;;;;;;;;;;;;;;;23.62;46.95;99302.69;5074736;28;19973;-70
2023/09/18 03:55:10;;;;;;;;;;;;;;;23.69;46.50;99303.59;5074712;28;19927;-69
2023/09/18 03:57:36;;;;;;;;;;;;;;;23.78;46.67;99302.47;5056598;28;19917;-70
2023/09/18 04:00:02;;;;;;;;;;;;;;;23.86;46.19;99306.88;5056718;28;19928;-71
2023/09/18 04:02:27;;;;;;;;;;;;;;;23.94;45.91;99303.25;5073226;28;19917;-70
2023/09/18 04:04:53;;;;;;;;;;;;;;;24.00;45.56;99305.16;5074556;28;19917;-69
2023/09/18 04:07:19;;;;;;;;;;;;;;;24.10;45.54;99311.03;5074553;28;20387;-71
2023/09/18 04:09:44;;;;;;;;;;;;;;;24.21;45.19;99312.34;5074339;28;19970;-72
2023/09/18 04:12:10;;;;;;;;;;;;;;;24.22;45.26;99314.00;5072271;28;19932;-72
2023/09/18 04:14:35;;;;;;;;;;;;;;;24.23;44.91;99309.47;5056408;28;19920;-73
2023/09/18 04:17:01;;;;;;;;;;;;;;;24.28;45.11;99307.88;5056176;28;19916;-71
2023/09/18 04:19:26;;;;;;;;;;;;;;;24.43;44.38;99314.97;5074159;28;19916;-74
2023/09/18 04:21:52;;;;;;;;;;;;;;;25.17;42.98;99316.31;5072580;28;19958;-72
2023/09/18 04:24:17;;;;;;;;;;;;;;;25.90;40.94;99310.44;5055164;28;19921;-72
2023/09/18 04:26:42;;;;;;;;;;;;;;;26.53;39.92;99310.94;5072942;28;19944;-73
2023/09/18 04:29:08;;;;;;;;;;;;;;;27.15;38.44;99315.16;5073155;28;20307;-71
2023/09/18 04:31:33;;;;;;;;;;;;;;;27.81;36.89;99314.06;5072828;28;19916;-72
2023/09/18 04:33:58;;;;;;;;;;;;;;;28.47;35.58;99315.47;5073852;28;19916;-72
2023/09/18 04:36:24;;;;;;;;;;;;;;;29.20;34.45;99315.84;5073850;28;20288;-72
2023/09/18 04:38:50;;;;;;;;;;;;;;;29.94;33.13;99313.84;5072708;28;19927;-73
2023/09/18 04:41:15;;;;;;;;;;;;;;;30.61;31.64;99314.69;5073937;28;20371;-73
2023/09/18 04:43:41;;;;;;;;;;;;;;;31.21;30.71;99310.88;5072488;28;19917;-70
2023/09/18 04:46:06;;;;;;;;;;;;;;;31.69;29.74;99320.50;5056182;28;19917;-74
2023/09/18 04:48:32;;;;;;;;;;;;;;;31.92;29.00;99313.34;5072456;28;19923;-68
2023/09/18 04:50:57;;;;;;;;;;;;;;;31.84;28.82;99308.34;5069016;28;19924;-70
2023/09/18 04:53:23;;;;;;;;;;;;;;;31.96;28.65;99310.97;5055254;28;19927;-68
2023/09/18 04:55:49;;;;;;;;;;;;;;;32.09;28.72;99314.19;5071838;28;19947;-70
2023/09/18 04:58:15;;;;;;;;;;;;;;;32.31;28.13;99312.63;5066045;28;19921;-68
2023/09/18 05:00:41;;;;;;;;;;;;;;;32.44;28.07;99309.63;5053675;28;19971;-69
2023/09/18 05:03:08;;;;;;;;;;;;;;;32.55;27.69;99314.09;5068529;28;20390;-68
2023/09/18 05:05:33;;;;;;;;;;;;;;;32.81;27.82;99318.03;5072144;28;19959;-67
2023/09/18 05:07:59;;;;;;;;;;;;;;;32.91;27.49;99313.81;5105900;28;20303;-68
2023/09/18 05:10:24;;;;;;;;;;;;;;;33.10;27.21;99315.16;5055265;28;19921;-66
2023/09/18 05:12:50;;;;;;;;;;;;;;;33.26;27.48;99315.41;5050319;28;20073;-68
2023/09/18 05:15:16;;;;;;;;;;;;;;;33.54;26.80;99312.47;5071219;28;19921;-67
2023/09/18 05:17:52;;;;;;;;;;;;;;;33.69;26.78;99313.69;5054902;28;19919;-67
2023/09/18 05:20:17;;;;;;;;;;;;;;;33.85;26.42;99309.28;5087538;28;19923;-67
2023/09/18 05:22:43;;;;;;;;;;;;;;;34.01;26.51;99313.75;5073149;28;20323;-68
2023/09/18 05:25:09;;;;;;;;;;;;;;;34.35;26.25;99313.50;5088065;28;19966;-76
2023/09/18 05:27:35;;;;;;;;;;;;;;;34.95;25.62;99306.03;5055271;28;19912;-77
2023/09/18 05:30:00;;;;;;;;;;;;;;;35.47;24.92;99317.94;5055545;28;19923;-81
2023/09/18 05:32:26;;;;;;;;;;;;;;;36.12;24.39;99303.94;5055192;28;19966;-73
2023/09/18 05:34:51;;;;;;;;;;;;;;;36.71;23.91;99318.00;5072386;28;19917;-77
2023/09/18 05:37:16;;;;;;;;;;;;;;;37.01;22.82;99317.13;5072061;28;19981;-78
2023/09/18 05:39:42;;;;;;;;;;;;;;;37.28;22.61;99311.31;5072379;28;19916;-74
2023/09/18 05:42:07;;;;;;;;;;;;;;;37.54;22.04;99318.53;5073682;28;19969;-76
2023/09/18 05:44:33;;;;;;;;;;;;;;;37.73;21.91;99319.50;5072148;28;20391;-79
2023/09/18 05:46:58;;;;;;;;;;;;;;;37.95;21.16;99319.09;5072223;28;20272;-72
2023/09/18 05:49:24;;;;;;;;;;;;;;;38.08;21.29;99324.97;5104801;28;19962;-70
2023/09/18 05:51:49;;;;;;;;;;;;;;;38.13;21.15;99323.03;5072928;28;20373;-71
2023/09/18 05:54:14;;;;;;;;;;;;;;;38.24;20.58;99321.06;5071975;28;19916;-71
2023/09/18 05:56:39;;;;;;;;;;;;;;;38.23;22.53;99324.88;5087129;28;19925;-71
2023/09/18 05:59:05;;;;;;;;;;;;;;;38.25;21.49;99319.16;5071934;28;19923;-70
2023/09/18 06:01:32;;;;;;;;;;;;;;;38.41;21.65;99325.28;5070918;28;19921;-73
2023/09/18 06:03:58;;;;;;;;;;;;;;;38.49;21.05;99324.66;5105867;28;20292;-89
2023/09/18 06:06:24;;;;;;;;;;;;;;;38.61;20.77;99318.81;5092310;28;19975;-82
2023/09/18 06:08:50;;;;;;;;;;;;;;;38.73;20.56;99328.25;5090938;28;19944;-80
2023/09/18 06:11:15;;;;;;;;;;;;;;;38.86;20.08;99323.19;5113200;28;19921;-85
2023/09/18 06:13:40;;;;;;;;;;;;;;;38.93;19.97;99326.38;5077913;28;19923;-84
2023/09/18 06:16:08;;;;;;;;;;;;;;;39.21;19.26;99330.16;5078635;28;19917;-81
2023/09/18 06:18:33;;;;;;;;;;;;;;;39.06;21.52;99335.78;5109490;28;19916;-82
2023/09/18 06:20:58;;;;;;;;;;;;;;;39.08;20.13;99328.97;5110208;28;19923;-81
2023/09/18 06:23:24;;;;;;;;;;;;;;;39.19;19.81;99329.66;5092096;28;19921;-80
2023/09/18 06:25:55;;;;;;;;;;;;;;;39.21;19.44;99324.69;5074549;28;19921;-80
2023/09/18 06:28:20;;;;;;;;;;;;;;;39.38;18.87;99331.59;5108159;28;19920;-83
2023/09/18 06:30:45;;;;;;;;;;;;;;;39.20;19.94;99322.25;5079261;28;20376;-87
2023/09/18 06:33:12;;;;;;;;;;;;;;;39.30;19.23;99337.69;5088512;28;20008;-80
2023/09/18 06:35:38;;;;;;;;;;;;;;;39.40;18.79;99327.44;5066530;28;19916;-78
2023/09/18 06:38:05;;;;;;;;;;;;;;;39.27;18.32;99333.66;5076883;28;19974;-77
2023/09/18 06:40:30;;;;;;;;;;;;;;;39.26;18.19;99329.28;5108689;28;20363;-77
2023/09/18 06:43:00;;;;;;;;;;;;;;;39.29;18.51;99334.16;5109160;28;19916;-76
2023/09/18 06:45:25;;;;;;;;;;;;;;;39.20;18.35;99344.09;5091857;28;19921;-79
2023/09/18 06:47:50;;;;;;;;;;;;;;;39.30;18.33;99334.97;5076413;28;19973;-79
2023/09/18 06:50:18;;;;;;;;;;;;;;;39.14;18.62;99331.63;5076638;28;19974;-77
2023/09/18 06:52:43;;;;;;;;;;;;;;;39.16;18.29;99340.34;5109895;28;19924;-77
2023/09/18 06:55:09;;;;;;;;;;;;;;;38.96;18.36;99333.19;5079310;28;20399;-79
2023/09/18 06:57:34;;;;;;;;;;;;;;;38.99;18.75;99338.06;5080538;28;19917;-80
2023/09/18 06:59:59;;;;;;;;;;;;;;;38.84;18.61;99339.88;5080816;28;19920;-77
2023/09/18 07:02:25;;;;;;;;;;;;;;;38.70;18.70;99333.47;5077686;28;19916;-78
2023/09/18 07:04:51;;;;;;;;;;;;;;;38.38;19.06;99340.28;5111528;28;19928;-77
2023/09/18 07:07:16;;;;;;;;;;;;;;;37.65;20.07;99345.44;5094304;28;19920;-76
2023/09/18 07:09:41;;;;;;;;;;;;;;;36.72;20.98;99342.22;5079614;28;19927;-83
2023/09/18 07:12:08;;;;;;;;;;;;;;;36.58;21.19;99341.16;5094136;28;19920;-78
2023/09/18 07:14:33;;;;;;;;;;;;;;;37.15;20.38;99341.84;5078992;28;19916;-80
2023/09/18 07:17:00;;;;;;;;;;;;;;;37.18;20.29;99345.88;5093815;28;20445;-80
2023/09/18 07:19:26;;;;;;;;;;;;;;;37.58;20.40;99339.47;5108768;28;19916;-76
2023/09/18 07:21:51;;;;;;;;;;;;;;;37.97;19.93;99338.69;5075596;28;19917;-79
2023/09/18 07:24:17;;;;;;;;;;;;;;;38.10;19.19;99345.41;5091588;28;20057;-77
2023/09/18 07:26:46;;;;;;;;;;;;;;;38.02;18.90;99340.56;5074919;28;19924;-78
2023/09/18 07:29:11;;;;;;;;;;;;;;;37.21;20.04;99343.47;5107863;28;19924;-79
2023/09/18 07:31:37;;;;;;;;;;;;;;;37.71;19.90;99343.50;5075745;28;19917;-77
2023/09/18 07:34:04;;;;;;;;;;;;;;;37.77;19.65;99339.66;5090753;28;19924;-77
2023/09/18 07:36:29;;;;;;;;;;;;;;;37.22;20.03;99338.84;5075206;28;19917;-78
2023/09/18 07:38:56;;;;;;;;;;;;;;;36.56;20.55;99335.16;5091238;28;20007;-81
2023/09/18 07:41:22;;;;;;;;;;;;;;;36.31;20.75;99328.69;5091171;28;19982;-79
2023/09/18 07:43:47;;;;;;;;;;;;;;;36.22;20.94;99335.72;5090416;28;20383;-78
2023/09/18 07:46:13;;;;;;;;;;;;;;;35.61;21.45;99336.41;5108038;28;19916;-78
2023/09/18 07:48:38;;;;;;;;;;;;;;;36.27;20.75;99332.22;5090354;28;19923;-78
2023/09/18 07:51:04;;;;;;;;;;;;;;;36.65;20.38;99333.50;5073490;28;20400;-78
2023/09/18 07:53:29;;;;;;;;;;;;;;;36.91;20.19;99328.03;5090274;28;19920;-78
2023/09/18 07:55:58;;;;;;;;;;;;;;;37.20;19.42;99320.03;5107523;28;19966;-76
2023/09/18 07:58:27;;;;;;;;;;;;;;;37.45;19.47;99327.28;5107484;28;19917;-77
2023/09/18 08:00:54;;;;;;;;;;;;;;;37.73;19.36;99335.84;5074860;28;19955;-79
2023/09/18 08:03:19;;;;;;;;;;;;;;;38.03;18.91;99336.72;5090337;28;19924;-79
2023/09/18 08:05:45;;;;;;;;;;;;;;;38.33;18.30;99323.97;5107993;28;20303;-78
2023/09/18 08:08:10;;;;;;;;;;;;;;;38.44;18.44;99328.22;5074340;28;20005;-78
2023/09/18 08:10:39;;;;;;;;;;;;;;;38.22;18.03;99322.44;5090278;28;19983;-78
2023/09/18 08:13:04;;;;;;;;;;;;;;;38.32;17.85;99319.66;5089816;28;20040;-78
2023/09/18 08:15:29;;;;;;;;;;;;;;;38.54;17.79;99313.72;5074434;28;20122;-78
2023/09/18 08:17:55;;;;;;;;;;;;;;;38.80;17.40;99318.91;5107086;28;20295;-79
2023/09/18 08:20:20;;;;;;;;;;;;;;;38.98;17.13;99323.59;5074291;28;20505;-76
2023/09/18 08:22:47;;;;;;;;;;;;;;;39.16;17.04;99322.03;5074606;28;19917;-77
2023/09/18 08:25:13;;;;;;;;;;;;;;;39.23;16.87;99322.47;5089670;28;19921;-77
2023/09/18 08:27:41;;;;;;;;;;;;;;;39.24;16.72;99315.94;5089897;28;20398;-77
2023/09/18 08:30:07;;;;;;;;;;;;;;;39.13;16.63;99310.91;5089459;28;19920;-78
2023/09/18 08:32:33;;;;;;;;;;;;;;;39.32;16.87;99314.47;5106081;28;19916;-78
2023/09/18 08:35:01;;;;;;;;;;;;;;;38.75;16.85;99308.88;5106870;28;19916;-78
2023/09/18 08:37:26;;;;;;;;;;;;;;;38.44;17.02;99306.41;5089424;28;19917;-81
2023/09/18 08:39:52;;;;;;;;;;;;;;;38.52;16.26;99305.81;5107055;28;19978;-77
2023/09/18 08:42:18;;;;;;;;;;;;;;;38.80;15.66;99295.16;5107078;28;19970;-80
2023/09/18 08:44:43;;;;;;;;;;;;;;;38.96;15.61;99300.44;5089237;28;19927;-80
2023/09/18 08:47:08;;;;;;;;;;;;;;;39.05;15.54;99301.41;5089646;28;19920;-77
2023/09/18 08:49:34;;;;;;;;;;;;;;;39.07;15.14;99291.00;5106361;28;20315;-78
2023/09/18 08:51:59;;;;;;;;;;;;;;;39.18;15.33;99291.72;5106339;28;19916;-77
2023/09/18 08:54:24;;;;;;;;;;;;;;;39.21;15.46;99289.22;5106719;28;19981;-78
2023/09/18 08:56:53;;;;;;;;;;;;;;;39.34;15.37;99295.84;5106441;28;19927;-80
2023/09/18 08:59:19;;;;;;;;;;;;;;;39.35;15.24;99288.50;5089339;28;19965;-80
2023/09/18 09:01:44;;;;;;;;;;;;;;;39.35;15.46;99292.03;5089177;28;20315;-78
2023/09/18 09:04:09;;;;;;;;;;;;;;;39.37;15.43;99289.81;5088861;28;19916;-77
2023/09/18 09:06:35;;;;;;;;;;;;;;;39.41;15.17;99281.81;5106111;28;20353;-78
2023/09/18 09:09:01;;;;;;;;;;;;;;;39.22;14.99;99288.13;5073208;28;19982;-77
2023/09/18 09:11:27;;;;;;;;;;;;;;;39.12;15.16;99288.25;5071933;28;19920;-78
2023/09/18 09:14:17;;;;;;;;;;;;;;;39.16;15.22;99281.09;5071952;28;19957;-78
2023/09/18 09:16:47;;;;;;;;;;;;;;;39.17;15.15;99287.34;5073543;28;19956;-77
2023/09/18 09:19:12;;;;;;;;;;;;;;;38.99;14.89;99286.22;5073534;28;19946;-78
2023/09/18 09:21:38;;;;;;;;;;;;;;;38.46;14.85;99284.31;5105695;28;19917;-79
2023/09/18 09:24:04;;;;;;;;;;;;;;;38.25;15.36;99276.34;5088622;28;19921;-76
2023/09/18 09:26:29;;;;;;;;;;;;;;;38.10;15.32;99276.47;5073002;28;20364;-78
2023/09/18 09:28:55;;;;;;;;;;;;;;;38.09;15.56;99272.91;5071631;28;19955;-78
2023/09/18 09:31:28;;;;;;;;;;;;;;;37.89;16.13;99276.66;5088514;28;19917;-81
2023/09/18 09:33:53;;;;;;;;;;;;;;;37.59;15.98;99281.19;5105327;28;19923;-80
2023/09/18 09:36:19;;;;;;;;;;;;;;;37.29;16.42;99274.84;5088934;28;20011;-80
2023/09/18 09:38:44;;;;;;;;;;;;;;;37.36;16.64;99273.72;5088710;28;19916;-79
2023/09/18 09:41:13;;;;;;;;;;;;;;;37.34;16.72;99265.84;5105758;28;19921;-80
2023/09/18 09:43:38;;;;;;;;;;;;;;;37.29;16.54;99263.94;5104358;28;19928;-77
2023/09/18 09:46:04;;;;;;;;;;;;;;;37.37;16.85;99265.28;5088784;28;19917;-81
2023/09/18 09:48:32;;;;;;;;;;;;;;;37.35;16.90;99263.91;5105860;28;19916;-77
2023/09/18 09:51:01;;;;;;;;;;;;;;;37.29;16.46;99266.69;5087910;28;19922;-77
2023/09/18 09:53:43;;;;;;;;;;;;;;;37.27;16.51;99265.31;5088272;28;20396;-81
2023/09/18 09:56:08;;;;;;;;;;;;;;;37.22;16.50;99257.19;5104994;28;19921;-78
2023/09/18 09:58:34;;;;;;;;;;;;;;;37.17;16.75;99255.28;5105649;28;19923;-78
2023/09/18 10:01:02;;;;;;;;;;;;;;;37.11;16.37;99259.91;5088284;28;19917;-78
2023/09/18 10:03:28;;;;;;;;;;;;;;;37.00;16.47;99258.34;5087997;28;19916;-78
2023/09/18 10:05:54;;;;;;;;;;;;;;;36.76;16.88;99253.53;5088250;28;19925;-78
2023/09/18 10:08:21;;;;;;;;;;;;;;;36.69;17.15;99249.47;5088412;28;19925;-77
2023/09/18 10:10:48;;;;;;;;;;;;;;;36.47;17.14;99247.91;5088732;28;20404;-77
2023/09/18 10:13:15;;;;;;;;;;;;;;;36.38;17.07;99249.56;5088387;28;19928;-77
2023/09/18 10:15:43;;;;;;;;;;;;;;;36.17;17.57;99246.03;5073149;28;19932;-79
2023/09/18 10:18:11;;;;;;;;;;;;;;;35.81;17.69;99246.88;5104899;28;19917;-79
2023/09/18 10:20:37;;;;;;;;;;;;;;;35.47;17.82;99244.66;5071483;28;20049;-78
2023/09/18 10:23:02;;;;;;;;;;;;;;;35.26;17.83;99246.50;5073382;28;19924;-78
2023/09/18 10:25:28;;;;;;;;;;;;;;;35.16;17.73;99241.00;5088585;28;20380;-76
2023/09/18 10:27:54;;;;;;;;;;;;;;;34.75;18.56;99236.25;5071453;28;19924;-78
2023/09/18 10:30:19;;;;;;;;;;;;;;;34.79;18.97;99236.53;5105530;28;19916;-78
2023/09/18 10:32:48;;;;;;;;;;;;;;;34.63;19.08;99235.63;5088553;28;19924;-77
2023/09/18 10:35:13;;;;;;;;;;;;;;;34.49;19.28;99235.28;5104567;28;19916;-76
2023/09/18 10:37:39;;;;;;;;;;;;;;;34.52;19.46;99234.78;5088947;28;20023;-80
2023/09/18 10:40:08;;;;;;;;;;;;;;;34.49;19.16;99229.88;5087916;28;19928;-77
2023/09/18 10:42:34;;;;;;;;;;;;;;;34.46;19.17;99224.97;5104996;28;19979;-77
2023/09/18 10:44:59;;;;;;;;;;;;;;;34.47;19.47;99220.38;5088092;28;20015;-75
2023/09/18 10:47:25;;;;;;;;;;;;;;;34.45;19.45;99222.53;5105269;28;19970;-78
2023/09/18 10:49:50;;;;;;;;;;;;;;;34.43;19.68;99220.88;5105198;28;19920;-76
2023/09/18 10:52:15;;;;;;;;;;;;;;;34.38;19.39;99212.72;5104963;28;19916;-77
2023/09/18 10:54:41;;;;;;;;;;;;;;;34.36;19.83;99212.16;5089429;28;20341;-77
2023/09/18 10:57:06;;;;;;;;;;;;;;;34.28;19.04;99220.78;5091832;28;19916;-76
2023/09/18 10:59:31;;;;;;;;;;;;;;;34.20;19.87;99216.63;5108509;28;20444;-77
2023/09/18 11:02:02;;;;;;;;;;;;;;;34.05;19.84;99208.44;5091574;28;19917;-77
2023/09/18 11:04:28;;;;;;;;;;;;;;;34.04;20.24;99202.19;5091263;28;19939;-79
2023/09/18 11:06:53;;;;;;;;;;;;;;;33.87;20.34;99199.66;5091213;28;19917;-77
2023/09/18 11:09:19;;;;;;;;;;;;;;;33.83;20.04;99205.84;5075701;28;19927;-76
2023/09/18 11:11:48;;;;;;;;;;;;;;;33.50;20.45;99197.66;5091091;28;19920;-79
2023/09/18 11:14:14;;;;;;;;;;;;;;;33.31;20.49;99202.63;5075491;28;19917;-79
2023/09/18 11:16:40;;;;;;;;;;;;;;;33.07;20.61;99201.28;5091278;28;19916;-78
2023/09/18 11:19:12;;;;;;;;;;;;;;;32.89;20.70;99203.22;5108221;28;20015;-79
2023/09/18 11:21:37;;;;;;;;;;;;;;;32.77;20.88;99199.84;5091176;28;20019;-77
2023/09/18 11:24:10;;;;;;;;;;;;;;;32.55;20.82;99203.31;5090851;28;20023;-77
2023/09/18 11:26:36;;;;;;;;;;;;;;;32.40;21.23;99198.53;5090355;28;19966;-77
2023/09/18 11:29:05;;;;;;;;;;;;;;;32.19;21.44;99189.31;5090861;28;19917;-77
2023/09/18 11:31:50;;;;;;;;;;;;;;;31.98;21.43;99187.38;5074026;28;19921;-76
2023/09/18 11:34:19;;;;;;;;;;;;;;;31.96;21.77;99184.06;5075547;28;19952;-79
2023/09/18 11:36:44;;;;;;;;;;;;;;;31.95;22.15;99188.66;5108386;28;20015;-77
2023/09/18 11:39:11;;;;;;;;;;;;;;;31.92;22.30;99179.16;5074183;28;20391;-78
2023/09/18 11:41:38;;;;;;;;;;;;;;;31.92;22.55;99172.97;5107216;28;19916;-78
2023/09/18 11:44:18;;;;;;;;;;;;;;;31.87;22.54;99173.69;5107202;28;19921;-78
2023/09/18 11:46:48;;;;;;;;;;;;;;;31.64;22.83;99179.25;5074888;28;19932;-78
2023/09/18 11:49:14;;;;;;;;;;;;;;;31.42;22.73;99166.44;5107418;28;20346;-81
2023/09/18 11:51:39;;;;;;;;;;;;;;;31.25;22.89;99179.06;5090595;28;19917;-79
2023/09/18 11:54:05;;;;;;;;;;;;;;;31.08;22.88;99158.31;5073783;28;19921;-80
2023/09/18 11:56:31;;;;;;;;;;;;;;;31.01;23.15;99161.16;5107471;28;19943;-77
2023/09/18 11:58:56;;;;;;;;;;;;;;;30.89;23.33;99165.72;5074866;28;19917;-80
2023/09/18 12:01:24;;;;;;;;;;;;;;;30.92;23.23;99164.44;5090254;28;19917;-78
2023/09/18 12:03:54;;;;;;;;;;;;;;;30.93;23.22;99164.19;5089845;28;19968;-77
2023/09/18 12:06:19;;;;;;;;;;;;;;;30.93;23.21;99153.41;5089066;28;19973;-79
2023/09/18 12:08:46;;;;;;;;;;;;;;;30.93;23.50;99144.50;5107285;28;19924;-77
2023/09/18 12:11:16;;;;;;;;;;;;;;;30.99;23.59;99151.66;5106875;28;19921;-77
2023/09/18 12:13:42;;;;;;;;;;;;;;;30.99;23.64;99154.34;5105749;28;19916;-79
2023/09/18 12:16:09;;;;;;;;;;;;;;;30.97;23.10;99151.09;5107964;28;19982;-77
2023/09/18 12:18:36;;;;;;;;;;;;;;;30.72;23.17;99146.78;5106521;28;19921;-78
2023/09/18 12:21:04;;;;;;;;;;;;;;;30.57;23.40;99138.41;5089440;28;19924;-78
2023/09/18 12:23:29;;;;;;;;;;;;;;;30.62;23.42;99133.94;5106240;28;20049;-79
2023/09/18 12:25:59;;;;;;;;;;;;;;;30.66;22.90;99142.34;5107119;28;19924;-77
2023/09/18 12:28:27;;;;;;;;;;;;;;;30.65;23.19;99141.56;5107009;28;19959;-79
2023/09/18 12:30:55;;;;;;;;;;;;;;;30.62;23.17;99138.53;5089648;28;19952;-79
2023/09/18 12:33:21;;;;;;;;;;;;;;;30.48;23.82;99137.97;5089381;28;19921;-76
2023/09/18 12:35:46;;;;;;;;;;;;;;;30.47;23.71;99133.63;5074596;28;19923;-78
2023/09/18 12:38:15;;;;;;;;;;;;;;;30.46;23.54;99137.41;5107019;28;20327;-76
2023/09/18 12:40:41;;;;;;;;;;;;;;;30.31;23.71;99152.16;5107016;28;19969;-76
2023/09/18 12:43:06;;;;;;;;;;;;;;;30.27;23.64;99139.38;5107255;28;19916;-77